createdAt,value
2018-09-23T00:14:32.665Z,2.20
2018-09-23T00:39:05.343Z,2.30
2018-09-23T01:06:00.149Z,2.45
2018-09-23T03:57:13.869Z,4.50
2018-09-23T03:59:41.124Z,4.53
2018-09-23T04:02:08.428Z,4.15
2018-09-23T04:04:35.696Z,4.15
2018-09-23T04:07:02.952Z,4.50
2018-09-23T04:09:30.206Z,4.40
2018-09-23T04:11:57.491Z,3.80
2018-09-23T04:14:24.715Z,4.27
2018-09-23T04:16:51.972Z,3.97
2018-09-23T04:19:19.215Z,3.70
2018-09-23T04:21:46.479Z,4.10
2018-09-23T04:24:13.725Z,3.77
2018-09-23T04:26:40.974Z,3.27
2018-09-23T04:29:08.244Z,3.53
2018-09-23T04:31:35.545Z,3.60
2018-09-23T04:34:02.824Z,3.27
2018-09-23T04:36:30.076Z,3.50
2018-09-23T04:38:57.327Z,3.10
2018-09-23T04:41:24.596Z,3.80
2018-09-23T04:43:51.871Z,3.03
2018-09-23T04:46:19.124Z,2.80
2018-09-23T04:48:46.819Z,3.05
2018-09-23T04:51:14.086Z,3.07
2018-09-23T04:53:41.331Z,2.80
2018-09-23T04:56:08.608Z,2.90
2018-09-23T05:01:02.589Z,2.77
2018-09-23T05:03:29.836Z,2.70
2018-09-23T05:05:57.087Z,2.50
2018-09-23T05:08:24.360Z,3.00
2018-09-23T05:10:51.626Z,3.03
2018-09-23T05:13:18.952Z,3.03
2018-09-23T05:15:46.207Z,2.90
2018-09-23T05:18:13.472Z,3.23
2018-09-23T05:20:40.748Z,3.00
2018-09-23T05:23:08.017Z,2.95
2018-09-23T05:25:35.273Z,3.10
2018-09-23T05:28:02.552Z,2.85
2018-09-23T05:30:29.804Z,2.90
2018-09-23T05:32:57.053Z,3.03
2018-09-23T05:35:24.332Z,2.77
2018-09-23T05:37:51.579Z,2.80
2018-09-23T05:40:18.820Z,3.10
2018-09-23T05:42:46.152Z,3.03
2018-09-23T05:45:13.485Z,3.03
2018-09-23T05:47:40.747Z,3.05
2018-09-23T05:50:08.048Z,2.97
2018-09-23T05:52:35.312Z,2.80
2018-09-23T05:55:02.578Z,3.40
2018-09-23T05:57:29.829Z,3.60
2018-09-23T05:59:58.148Z,3.03
2018-09-23T06:02:25.812Z,3.10
2018-09-23T06:04:53.148Z,3.10
2018-09-23T06:07:20.436Z,3.10
2018-09-23T06:09:47.684Z,3.37
2018-09-23T06:12:14.940Z,3.10
2018-09-23T06:14:42.211Z,3.20
2018-09-23T06:17:09.517Z,3.37
2018-09-23T06:19:36.776Z,3.60
2018-09-23T06:22:04.084Z,3.70
2018-09-23T06:24:31.379Z,3.50
2018-09-23T06:26:58.641Z,3.60
2018-09-23T06:29:25.929Z,3.43
2018-09-23T06:31:53.201Z,3.40
2018-09-23T06:34:20.467Z,3.40
2018-09-23T06:36:47.744Z,3.85
2018-09-23T06:39:15.045Z,3.65
2018-09-23T06:41:42.320Z,3.60
2018-09-23T06:44:10.040Z,3.90
2018-09-23T06:46:37.299Z,3.50
2018-09-23T06:49:04.616Z,3.75
2018-09-23T06:51:31.896Z,3.40
2018-09-23T06:53:59.136Z,3.40
2018-09-23T06:56:26.392Z,3.55
2018-09-23T06:58:53.649Z,3.80
2018-09-23T07:01:20.904Z,4.30
2018-09-23T07:03:48.176Z,3.95
2018-09-23T07:06:15.432Z,4.05
2018-09-23T07:08:42.744Z,3.80
2018-09-23T07:11:10.059Z,3.50
2018-09-23T07:16:04.089Z,4.10
2018-09-23T07:18:31.374Z,4.05
2018-09-23T07:20:58.669Z,3.80
2018-09-23T07:23:26.113Z,3.90
2018-09-23T07:25:53.385Z,3.90
2018-09-23T07:28:21.063Z,3.37
2018-09-23T07:35:41.890Z,3.75
2018-09-23T07:43:02.672Z,4.00
2018-09-23T07:45:29.952Z,4.20
2018-09-23T11:08:37.172Z,9.50
2018-09-23T12:56:21.702Z,3.90
2018-09-23T13:08:36.028Z,3.20
2018-09-23T13:37:58.516Z,2.90
2018-09-23T13:40:25.825Z,2.70
2018-09-23T13:42:54.012Z,2.60
2018-09-23T13:45:21.317Z,2.80
2018-09-23T13:47:48.612Z,2.35
2018-09-23T13:50:15.940Z,2.60
2018-09-23T13:52:43.259Z,2.80
2018-09-23T13:57:37.259Z,2.70
2018-09-23T14:12:18.604Z,2.70
2018-09-23T14:17:12.625Z,2.10
2018-09-23T14:22:06.812Z,2.50
2018-09-23T14:24:34.192Z,2.10
2018-09-23T14:27:01.467Z,2.20
2018-09-23T14:29:29.414Z,2.10
2018-09-23T14:34:23.704Z,2.50
2018-09-23T14:36:50.992Z,2.20
2018-09-23T14:41:45.056Z,2.25
2018-09-23T14:44:12.333Z,2.20
2018-09-23T14:49:06.372Z,2.70
2018-09-23T14:54:00.436Z,2.40
2018-09-23T14:56:27.688Z,2.30
2018-09-23T14:58:54.940Z,2.10
2018-09-23T15:20:56.296Z,2.40
2018-09-23T17:38:00.185Z,1.33
2018-09-23T17:40:27.444Z,1.30
2018-09-23T17:42:54.721Z,1.50
2018-09-23T17:45:22.059Z,1.30
2018-09-23T17:47:49.340Z,1.30
2018-09-23T17:52:43.421Z,1.40
2018-09-23T17:55:10.737Z,1.65
2018-09-23T17:57:38.013Z,1.20
2018-09-23T18:00:05.420Z,1.50
2018-09-23T18:02:32.676Z,1.50
2018-09-23T18:07:26.852Z,1.50
2018-09-23T18:09:54.124Z,1.35
2018-09-23T18:12:21.396Z,1.60
2018-09-23T18:39:16.275Z,1.30
2018-09-23T20:07:39.401Z,1.10
2018-09-23T20:17:26.981Z,1.20
2018-09-23T20:24:47.749Z,1.00
2018-09-23T20:54:11.360Z,1.30
2018-09-23T21:06:25.680Z,1.50
2018-09-23T21:13:46.444Z,1.40
2018-09-23T21:18:40.444Z,1.30
2018-09-23T22:05:09.650Z,1.70
2018-09-23T22:34:31.641Z,1.40
2018-09-23T23:06:20.072Z,1.30
2018-09-23T23:18:34.455Z,1.30
